createdAt,value
2018-11-10T00:00:38.928Z,26.67
2018-11-10T00:03:08.349Z,28.67
2018-11-10T00:05:38.228Z,31.70
2018-11-10T00:08:07.886Z,29.57
2018-11-10T00:10:37.485Z,31.50
2018-11-10T00:13:07.151Z,33.20
2018-11-10T00:15:36.772Z,47.03
2018-11-10T00:18:06.978Z,42.77
2018-11-10T00:20:36.307Z,42.47
2018-11-10T00:23:05.968Z,39.23
2018-11-10T00:25:35.627Z,39.07
2018-11-10T00:28:05.132Z,39.93
2018-11-10T00:30:34.533Z,42.30
2018-11-10T00:33:04.042Z,42.27
2018-11-10T00:35:33.544Z,40.90
2018-11-10T00:38:02.970Z,35.90
2018-11-10T00:40:32.447Z,38.40
2018-11-10T00:43:01.852Z,34.40
2018-11-10T00:45:31.353Z,31.83
2018-11-10T00:48:00.755Z,32.43
2018-11-10T00:50:30.054Z,33.63
2018-11-10T00:52:59.567Z,41.83
2018-11-10T00:55:29.062Z,33.60
2018-11-10T00:57:58.464Z,37.40
2018-11-10T01:00:27.866Z,35.83
2018-11-10T01:02:57.375Z,39.00
2018-11-10T01:05:26.685Z,36.93
2018-11-10T01:07:56.172Z,35.63
2018-11-10T01:10:25.678Z,33.77
2018-11-10T01:12:55.181Z,33.70
2018-11-10T01:15:24.688Z,35.60
2018-11-10T01:17:54.336Z,46.47
2018-11-10T01:20:23.923Z,34.33
2018-11-10T01:22:53.917Z,36.50
2018-11-10T01:25:23.494Z,38.20
2018-11-10T01:27:52.897Z,41.73
2018-11-10T01:30:22.329Z,41.87
2018-11-10T01:32:51.832Z,38.17
2018-11-10T01:35:21.339Z,38.10
2018-11-10T01:37:50.737Z,39.50
2018-11-10T01:40:20.137Z,38.67
2018-11-10T01:42:49.641Z,43.47
2018-11-10T01:45:18.972Z,39.00
2018-11-10T01:47:48.546Z,44.40
2018-11-10T01:50:18.016Z,33.23
2018-11-10T01:52:47.352Z,37.63
2018-11-10T01:55:16.957Z,36.00
2018-11-10T01:57:46.536Z,37.50
2018-11-10T02:00:17.556Z,35.40
2018-11-10T02:02:47.520Z,33.07
2018-11-10T02:05:17.491Z,31.87
2018-11-10T02:07:46.939Z,29.90
2018-11-10T02:10:16.339Z,30.87
2018-11-10T02:12:45.744Z,36.87
2018-11-10T02:15:16.370Z,38.70
2018-11-10T02:17:45.876Z,37.63
2018-11-10T02:20:15.911Z,40.70
2018-11-10T02:22:45.599Z,37.77
2018-11-10T02:25:15.002Z,26.87
2018-11-10T02:27:44.573Z,31.97
2018-11-10T02:30:14.164Z,35.10
2018-11-10T02:32:43.684Z,33.17
2018-11-10T02:35:13.427Z,34.03
2018-11-10T02:37:42.932Z,29.83
2018-11-10T02:40:14.323Z,30.20
2018-11-10T02:42:44.404Z,37.23
2018-11-10T02:45:14.823Z,40.17
2018-11-10T02:47:44.941Z,43.60
2018-11-10T02:50:14.340Z,39.60
2018-11-10T02:52:44.027Z,31.30
2018-11-10T02:55:13.556Z,29.63
2018-11-10T02:57:43.470Z,28.03
2018-11-10T03:00:14.147Z,31.77
2018-11-10T03:02:43.589Z,32.03
2018-11-10T03:05:13.117Z,27.30
2018-11-10T03:07:42.613Z,30.07
2018-11-10T03:10:12.529Z,31.17
2018-11-10T03:12:42.340Z,30.20
2018-11-10T03:15:12.766Z,28.07
2018-11-10T03:17:42.166Z,27.20
2018-11-10T03:20:16.042Z,26.93
2018-11-10T03:22:45.877Z,28.43
2018-11-10T03:25:15.288Z,27.50
2018-11-10T03:27:44.688Z,29.37
2018-11-10T03:30:14.197Z,27.20
2018-11-10T03:32:43.696Z,30.10
2018-11-10T03:35:13.097Z,26.53
2018-11-10T03:37:42.700Z,22.87
2018-11-10T03:40:12.887Z,30.23
2018-11-10T03:42:42.328Z,28.33
2018-11-10T03:45:12.495Z,30.83
2018-11-10T03:47:42.038Z,28.27
2018-11-10T03:50:11.968Z,25.40
2018-11-10T03:52:41.675Z,20.13
2018-11-10T03:55:11.486Z,23.00
2018-11-10T03:57:41.196Z,27.60
2018-11-10T04:00:12.737Z,27.57
2018-11-10T04:02:43.676Z,25.53
2018-11-10T04:05:13.667Z,28.67
2018-11-10T04:07:44.242Z,24.23
2018-11-10T04:10:14.364Z,27.87
2018-11-10T04:12:43.751Z,27.73
2018-11-10T04:15:13.154Z,28.83
2018-11-10T04:17:42.656Z,26.93
2018-11-10T04:20:12.262Z,27.63
2018-11-10T04:22:41.738Z,26.60
2018-11-10T04:25:12.004Z,30.67
2018-11-10T04:27:41.597Z,29.67
2018-11-10T04:30:11.621Z,29.70
2018-11-10T04:32:41.031Z,30.63
2018-11-10T04:35:10.412Z,27.10
2018-11-10T04:37:39.816Z,32.13
2018-11-10T04:40:10.240Z,35.20
2018-11-10T04:42:39.950Z,34.37
2018-11-10T04:45:10.668Z,21.57
2018-11-10T04:47:40.086Z,28.30
2018-11-10T04:50:10.671Z,30.20
2018-11-10T04:52:40.247Z,25.57
2018-11-10T04:55:10.900Z,20.80
2018-11-10T04:57:40.800Z,29.87
2018-11-10T05:00:13.033Z,25.40
2018-11-10T05:02:42.845Z,29.53
2018-11-10T05:05:12.348Z,24.93
2018-11-10T05:07:41.749Z,21.97
2018-11-10T05:10:11.680Z,19.50
2018-11-10T05:12:41.166Z,22.60
2018-11-10T05:15:12.106Z,19.60
2018-11-10T05:17:41.505Z,20.53
2018-11-10T05:20:11.115Z,24.63
2018-11-10T05:22:40.458Z,22.47
2018-11-10T05:25:10.760Z,21.20
2018-11-10T05:27:40.343Z,25.97
2018-11-10T05:30:10.211Z,19.20
2018-11-10T05:32:39.557Z,15.67
2018-11-10T05:35:09.676Z,22.70
2018-11-10T05:37:39.182Z,20.50
2018-11-10T05:40:10.013Z,26.23
2018-11-10T05:42:39.517Z,27.47
2018-11-10T05:45:09.477Z,24.73
2018-11-10T05:47:39.038Z,18.47
2018-11-10T05:50:09.059Z,19.27
2018-11-10T05:52:38.773Z,18.70
2018-11-10T05:55:08.675Z,24.03
2018-11-10T05:57:38.180Z,20.83
2018-11-10T06:00:09.655Z,23.77
2018-11-10T06:02:39.137Z,26.40
2018-11-10T06:05:08.672Z,23.23
2018-11-10T06:07:38.037Z,52.63
2018-11-10T06:10:08.871Z,86.80
2018-11-10T06:12:38.175Z,25.17
2018-11-10T06:15:08.271Z,24.80
2018-11-10T06:17:37.695Z,34.30
2018-11-10T06:20:09.045Z,33.90
2018-11-10T06:22:38.443Z,48.57
2018-11-10T06:25:08.728Z,43.30
2018-11-10T06:27:38.237Z,54.63
2018-11-10T06:30:09.474Z,43.47
2018-11-10T06:32:39.281Z,28.37
2018-11-10T06:35:09.447Z,29.37
2018-11-10T06:37:39.123Z,34.07
2018-11-10T06:40:10.406Z,32.23
2018-11-10T06:42:40.110Z,31.17
2018-11-10T06:45:09.620Z,29.20
2018-11-10T06:47:39.527Z,29.43
2018-11-10T06:50:10.636Z,25.93
2018-11-10T06:52:39.977Z,29.27
2018-11-10T06:55:10.548Z,24.13
2018-11-10T06:57:40.309Z,21.87
2018-11-10T07:00:11.818Z,25.47
2018-11-10T07:02:41.570Z,24.40
2018-11-10T07:05:11.592Z,24.70
2018-11-10T07:07:41.198Z,25.50
2018-11-10T07:10:11.135Z,27.43
2018-11-10T07:12:40.611Z,24.00
2018-11-10T07:15:10.354Z,25.27
2018-11-10T07:17:41.072Z,27.93
2018-11-10T07:20:10.337Z,30.03
2018-11-10T07:22:39.853Z,28.33
2018-11-10T07:25:09.874Z,42.80
2018-11-10T07:27:39.477Z,73.30
2018-11-10T07:30:11.843Z,47.77
2018-11-10T07:32:41.763Z,69.50
2018-11-10T07:35:12.268Z,76.40
2018-11-10T07:37:41.955Z,78.80
2018-11-10T07:40:12.737Z,76.43
2018-11-10T07:42:41.953Z,70.33
2018-11-10T07:45:13.583Z,57.33
2018-11-10T07:47:43.436Z,62.20
2018-11-10T07:50:13.003Z,57.73
2018-11-10T07:52:43.426Z,55.73
2018-11-10T07:55:14.143Z,52.03
2018-11-10T07:57:44.177Z,46.33
2018-11-10T08:00:15.831Z,47.20
2018-11-10T08:02:45.130Z,45.60
2018-11-10T08:05:15.256Z,42.40
2018-11-10T08:07:44.957Z,43.30
2018-11-10T08:10:14.972Z,43.57
2018-11-10T08:12:44.379Z,40.37
2018-11-10T08:15:15.243Z,41.83
2018-11-10T08:17:44.615Z,40.40
2018-11-10T08:20:14.527Z,39.83
2018-11-10T08:22:44.059Z,34.33
2018-11-10T08:25:14.843Z,34.50
2018-11-10T08:27:44.271Z,35.23
2018-11-10T08:30:14.595Z,35.17
2018-11-10T08:32:44.505Z,30.53
2018-11-10T08:35:14.756Z,31.97
2018-11-10T08:37:44.229Z,31.53
2018-11-10T08:40:17.530Z,31.73
2018-11-10T08:42:46.927Z,30.40
2018-11-10T08:45:17.041Z,30.53
2018-11-10T08:47:46.605Z,28.50
2018-11-10T08:50:17.074Z,28.53
2018-11-10T08:52:46.579Z,28.60
2018-11-10T08:55:16.492Z,26.53
2018-11-10T08:57:45.969Z,28.57
2018-11-10T09:00:15.402Z,26.40
2018-11-10T09:02:44.902Z,29.23
2018-11-10T09:05:14.343Z,27.57
2018-11-10T09:07:43.915Z,26.87
2018-11-10T09:10:14.463Z,25.87
2018-11-10T09:12:43.738Z,23.87
2018-11-10T09:15:14.545Z,24.73
2018-11-10T09:17:44.219Z,25.70
2018-11-10T09:20:15.118Z,26.63
2018-11-10T09:22:44.777Z,24.63
2018-11-10T09:25:15.547Z,21.20
2018-11-10T09:27:45.165Z,20.33
2018-11-10T09:30:16.016Z,19.00
2018-11-10T09:32:45.505Z,22.43
2018-11-10T09:35:15.417Z,20.13
2018-11-10T09:37:44.822Z,20.00
2018-11-10T09:40:15.588Z,18.77
2018-11-10T09:42:45.246Z,19.97
2018-11-10T09:45:15.773Z,17.80
2018-11-10T09:47:45.602Z,20.60
2018-11-10T09:50:17.784Z,17.47
2018-11-10T09:52:47.381Z,16.83
2018-11-10T09:55:17.187Z,20.47
2018-11-10T09:57:46.648Z,17.13
2018-11-10T10:00:19.098Z,19.43
2018-11-10T10:02:48.853Z,19.80
2018-11-10T10:05:17.978Z,22.73
2018-11-10T10:07:47.481Z,18.30
2018-11-10T10:10:17.968Z,18.17
2018-11-10T10:12:47.605Z,18.10
2018-11-10T10:15:18.225Z,19.10
2018-11-10T10:17:47.801Z,19.80
2018-11-10T10:20:18.569Z,17.53
2018-11-10T10:22:48.818Z,16.40
2018-11-10T10:25:19.278Z,24.60
2018-11-10T10:27:49.250Z,19.63
2018-11-10T10:30:21.509Z,22.17
2018-11-10T10:32:51.120Z,18.90
2018-11-10T10:35:20.554Z,17.80
2018-11-10T10:37:50.919Z,15.73
2018-11-10T10:40:20.553Z,18.40
2018-11-10T10:42:50.231Z,16.93
2018-11-10T10:45:20.968Z,16.37
2018-11-10T10:47:50.401Z,16.43
2018-11-10T10:50:20.990Z,17.00
2018-11-10T10:52:50.429Z,17.10
2018-11-10T10:55:20.330Z,16.63
2018-11-10T10:57:50.490Z,17.30
2018-11-10T11:00:25.185Z,16.93
2018-11-10T11:03:02.979Z,18.33
2018-11-10T11:05:40.780Z,20.00
2018-11-10T11:08:10.263Z,18.37
2018-11-10T11:10:39.688Z,19.67
2018-11-10T11:13:08.985Z,18.83
2018-11-10T11:15:38.453Z,20.17
2018-11-10T11:18:07.898Z,16.33
2018-11-10T11:20:37.352Z,19.23
2018-11-10T11:23:06.905Z,17.17
2018-11-10T11:25:36.299Z,17.40
2018-11-10T11:28:05.906Z,18.57
2018-11-10T11:30:35.412Z,21.87
2018-11-10T11:33:05.125Z,19.50
2018-11-10T11:35:34.527Z,28.20
2018-11-10T11:38:04.209Z,26.13
2018-11-10T11:40:33.742Z,23.60
2018-11-10T11:43:03.245Z,29.80
2018-11-10T11:45:32.744Z,25.23
2018-11-10T11:48:02.254Z,18.17
2018-11-10T11:50:32.163Z,18.47
2018-11-10T11:53:01.872Z,18.30
2018-11-10T11:55:31.583Z,18.50
2018-11-10T11:58:01.082Z,19.30
2018-11-10T12:00:30.774Z,19.43
2018-11-10T12:03:00.116Z,17.20
2018-11-10T12:05:29.501Z,16.80
2018-11-10T12:07:59.897Z,16.17
2018-11-10T12:10:29.323Z,17.43
2018-11-10T12:12:58.731Z,16.00
2018-11-10T12:15:28.071Z,17.90
2018-11-10T12:17:57.426Z,16.43
2018-11-10T12:20:26.780Z,16.97
2018-11-10T12:22:56.229Z,18.50
2018-11-10T12:25:25.732Z,18.47
2018-11-10T12:27:55.326Z,17.30
2018-11-10T12:30:24.843Z,18.87
2018-11-10T12:32:54.451Z,17.87
2018-11-10T12:35:23.853Z,18.03
2018-11-10T12:37:53.459Z,18.40
2018-11-10T12:40:22.962Z,16.90
2018-11-10T12:42:52.372Z,18.23
2018-11-10T12:45:22.075Z,16.13
2018-11-10T12:47:51.578Z,16.30
2018-11-10T12:50:21.187Z,15.20
2018-11-10T12:52:50.697Z,16.73
2018-11-10T12:55:20.212Z,18.70
2018-11-10T12:57:49.827Z,17.33
2018-11-10T13:00:19.206Z,15.60
2018-11-10T13:02:48.710Z,18.53
2018-11-10T13:05:19.138Z,19.90
2018-11-10T13:07:49.460Z,19.80
2018-11-10T13:10:19.023Z,19.30
2018-11-10T13:12:48.467Z,19.37
2018-11-10T13:15:17.874Z,16.30
2018-11-10T13:17:47.396Z,16.07
2018-11-10T13:20:16.989Z,18.67
2018-11-10T13:22:46.482Z,16.47
2018-11-10T13:25:16.090Z,17.30
2018-11-10T13:27:45.592Z,16.23
2018-11-10T13:30:15.899Z,19.00
2018-11-10T13:32:45.422Z,20.87
2018-11-10T13:35:14.820Z,17.87
2018-11-10T13:37:44.549Z,20.00
2018-11-10T13:40:13.953Z,20.00
2018-11-10T13:42:43.435Z,18.53
2018-11-10T13:45:13.965Z,18.43
2018-11-10T13:47:43.979Z,21.17
2018-11-10T13:50:13.603Z,20.47
2018-11-10T13:52:43.841Z,18.03
2018-11-10T13:55:13.720Z,20.53
2018-11-10T13:57:43.634Z,18.00
2018-11-10T14:00:16.721Z,29.03
2018-11-10T14:02:46.086Z,21.83
2018-11-10T14:05:16.039Z,20.60
2018-11-10T14:07:45.541Z,20.23
2018-11-10T14:10:16.239Z,20.10
2018-11-10T14:12:46.434Z,21.83
2018-11-10T14:15:15.965Z,20.77
2018-11-10T14:17:45.815Z,23.53
2018-11-10T14:20:16.246Z,21.63
2018-11-10T14:22:46.559Z,22.00
2018-11-10T14:25:16.680Z,21.93
2018-11-10T14:27:46.390Z,23.37
2018-11-10T14:30:17.223Z,22.20
2018-11-10T14:32:47.138Z,22.10
2018-11-10T14:35:16.678Z,22.13
2018-11-10T14:37:46.155Z,23.83
2018-11-10T14:40:16.989Z,23.70
2018-11-10T14:42:46.792Z,21.77
2018-11-10T14:45:17.847Z,20.73
2018-11-10T14:47:47.337Z,18.93
2018-11-10T14:50:17.870Z,20.57
2018-11-10T14:52:47.645Z,20.23
2018-11-10T14:55:17.225Z,20.47
2018-11-10T14:57:46.694Z,19.60
2018-11-10T15:00:19.261Z,17.87
2018-11-10T15:02:48.768Z,19.80
2018-11-10T15:05:18.270Z,17.23
2018-11-10T15:07:47.881Z,20.97
2018-11-10T15:10:18.076Z,19.80
2018-11-10T15:12:47.805Z,22.40
2018-11-10T15:15:18.520Z,16.90
2018-11-10T15:17:48.217Z,20.27
2018-11-10T15:20:18.714Z,20.53
2018-11-10T15:22:48.282Z,18.53
2018-11-10T15:25:19.229Z,21.07
2018-11-10T15:27:48.722Z,18.63
2018-11-10T15:30:19.470Z,20.57
2018-11-10T15:32:49.164Z,18.37
2018-11-10T15:35:19.861Z,17.30
2018-11-10T15:37:50.328Z,17.87
2018-11-10T15:40:20.546Z,20.07
2018-11-10T15:42:50.049Z,16.17
2018-11-10T15:45:20.471Z,19.50
2018-11-10T15:47:49.883Z,18.90
2018-11-10T15:50:20.376Z,20.10
2018-11-10T15:52:49.906Z,18.73
2018-11-10T15:55:19.860Z,18.40
2018-11-10T15:57:49.837Z,18.80
2018-11-10T16:00:20.265Z,19.50
2018-11-10T16:02:49.880Z,19.77
2018-11-10T16:05:19.479Z,19.23
2018-11-10T16:07:49.846Z,17.57
2018-11-10T16:10:19.656Z,19.30
2018-11-10T16:12:50.086Z,17.17
2018-11-10T16:15:20.012Z,18.70
2018-11-10T16:17:49.770Z,17.20
2018-11-10T16:20:20.397Z,17.87
2018-11-10T16:22:51.087Z,16.33
2018-11-10T16:25:20.633Z,18.90
2018-11-10T16:27:50.463Z,17.27
2018-11-10T16:30:20.705Z,17.57
2018-11-10T16:32:51.194Z,17.30
2018-11-10T16:35:20.715Z,15.20
2018-11-10T16:37:50.200Z,20.20
2018-11-10T16:40:20.633Z,19.27
2018-11-10T16:42:50.541Z,18.73
2018-11-10T16:45:20.976Z,19.87
2018-11-10T16:47:50.639Z,21.37
2018-11-10T16:50:20.023Z,21.00
2018-11-10T16:52:49.785Z,21.27
2018-11-10T16:55:19.260Z,22.60
2018-11-10T16:57:48.690Z,33.23
2018-11-10T17:00:19.200Z,22.40
2018-11-10T17:02:48.794Z,22.57
2018-11-10T17:05:18.234Z,21.37
2018-11-10T17:07:47.836Z,22.70
2018-11-10T17:10:18.400Z,22.23
2018-11-10T17:12:48.070Z,22.73
2018-11-10T17:15:18.212Z,24.77
2018-11-10T17:17:47.795Z,24.43
2018-11-10T17:20:17.815Z,25.10
2018-11-10T17:22:47.473Z,24.70
2018-11-10T17:25:17.230Z,24.07
2018-11-10T17:27:46.946Z,26.40
2018-11-10T17:30:18.365Z,24.50
2018-11-10T17:32:48.443Z,25.53
2018-11-10T17:35:18.628Z,27.53
2018-11-10T17:37:48.076Z,25.27
2018-11-10T17:40:17.619Z,27.87
2018-11-10T17:42:47.038Z,27.57
2018-11-10T17:45:17.772Z,27.70
2018-11-10T17:47:47.479Z,28.53
2018-11-10T17:50:18.109Z,27.93
2018-11-10T17:52:47.700Z,25.00
2018-11-10T17:55:18.107Z,26.30
2018-11-10T17:57:48.084Z,26.77
2018-11-10T18:00:17.459Z,29.30
2018-11-10T18:02:46.961Z,26.57
2018-11-10T18:05:17.163Z,31.53
2018-11-10T18:07:46.785Z,27.97
2018-11-10T18:10:17.387Z,30.70
2018-11-10T18:12:47.244Z,31.50
2018-11-10T18:15:16.941Z,31.23
2018-11-10T18:17:46.685Z,30.27
2018-11-10T18:20:17.164Z,33.20
2018-11-10T18:22:47.192Z,32.10
2018-11-10T18:25:16.607Z,33.73
2018-11-10T18:27:45.996Z,35.13
2018-11-10T18:30:16.012Z,31.03
2018-11-10T18:32:45.696Z,32.50
2018-11-10T18:35:15.396Z,33.57
2018-11-10T18:37:44.830Z,32.50
2018-11-10T18:40:14.336Z,34.87
2018-11-10T18:42:44.353Z,33.63
2018-11-10T18:45:14.266Z,30.17
2018-11-10T18:47:44.950Z,31.30
2018-11-10T18:50:16.347Z,30.47
2018-11-10T18:52:45.784Z,28.90
2018-11-10T18:55:16.070Z,27.33
2018-11-10T18:57:46.269Z,31.68
2018-11-10T19:00:16.700Z,28.00
2018-11-10T19:02:46.162Z,29.17
2018-11-10T19:05:16.956Z,27.60
2018-11-10T19:07:46.461Z,25.97
2018-11-10T19:10:17.092Z,24.83
2018-11-10T19:12:46.506Z,25.60
2018-11-10T19:15:18.348Z,23.87
2018-11-10T19:17:47.972Z,25.43
2018-11-10T19:20:18.188Z,26.87
2018-11-10T19:22:47.828Z,24.73
2018-11-10T19:25:17.906Z,26.50
2018-11-10T19:27:47.577Z,23.53
2018-11-10T19:30:19.099Z,26.23
2018-11-10T19:32:50.618Z,23.50
2018-11-10T19:35:20.543Z,26.10
2018-11-10T19:37:50.140Z,25.33
2018-11-10T19:40:19.656Z,23.97
2018-11-10T19:42:49.454Z,25.90
2018-11-10T19:45:19.468Z,24.03
2018-11-10T19:47:49.082Z,24.50
2018-11-10T19:50:19.169Z,25.40
2018-11-10T19:52:48.716Z,25.17
2018-11-10T19:55:18.751Z,24.83
2018-11-10T19:57:48.680Z,24.57
2018-11-10T20:00:22.222Z,25.93
2018-11-10T20:02:53.417Z,25.97
2018-11-10T20:05:23.737Z,23.93
2018-11-10T20:07:53.812Z,25.03
2018-11-10T20:10:23.842Z,26.40
2018-11-10T20:12:53.764Z,25.70
2018-11-10T20:15:23.442Z,24.17
2018-11-10T20:17:53.198Z,25.03
2018-11-10T20:20:23.178Z,27.63
2018-11-10T20:22:53.083Z,24.67
2018-11-10T20:25:23.011Z,24.23
2018-11-10T20:27:53.009Z,24.53
2018-11-10T20:30:23.090Z,24.90
2018-11-10T20:32:53.284Z,23.07
2018-11-10T20:35:23.547Z,23.93
2018-11-10T20:37:53.334Z,20.53
2018-11-10T20:40:23.785Z,22.30
2018-11-10T20:42:53.678Z,21.70
2018-11-10T20:45:23.857Z,24.30
2018-11-10T20:47:53.560Z,20.33
2018-11-10T20:50:23.090Z,22.53
2018-11-10T20:52:52.856Z,22.20
2018-11-10T20:55:23.191Z,21.10
2018-11-10T20:57:52.807Z,22.07
2018-11-10T21:00:23.144Z,19.13
2018-11-10T21:02:52.738Z,21.00
2018-11-10T21:05:22.343Z,19.93
2018-11-10T21:07:51.948Z,21.70
2018-11-10T21:10:22.033Z,19.13
2018-11-10T21:12:52.155Z,19.90
2018-11-10T21:15:22.305Z,18.93
2018-11-10T21:17:52.034Z,19.40
2018-11-10T21:20:21.568Z,19.47
2018-11-10T21:22:50.904Z,21.23
2018-11-10T21:25:20.426Z,21.57
2018-11-10T21:27:50.032Z,21.43
2018-11-10T21:30:20.560Z,20.33
2018-11-10T21:32:50.162Z,21.03
2018-11-10T21:35:19.670Z,20.00
2018-11-10T21:37:49.054Z,19.37
2018-11-10T21:40:19.705Z,19.23
2018-11-10T21:42:49.104Z,20.87
2018-11-10T21:45:19.325Z,20.77
2018-11-10T21:47:48.518Z,21.27
2018-11-10T21:50:20.583Z,21.70
2018-11-10T21:52:49.893Z,22.90
2018-11-10T21:55:20.072Z,21.63
2018-11-10T21:57:50.122Z,21.50
2018-11-10T22:00:22.615Z,21.13
2018-11-10T22:02:52.307Z,21.67
2018-11-10T22:05:21.839Z,20.90
2018-11-10T22:07:51.216Z,21.30
2018-11-10T22:10:21.013Z,20.70
2018-11-10T22:12:50.387Z,22.17
2018-11-10T22:15:21.468Z,20.73
2018-11-10T22:17:51.175Z,20.93
2018-11-10T22:20:21.955Z,20.47
2018-11-10T22:22:51.419Z,21.10
2018-11-10T22:25:20.816Z,20.77
2018-11-10T22:27:51.569Z,20.60
2018-11-10T22:30:21.923Z,19.30
2018-11-10T22:32:51.888Z,20.97
2018-11-10T22:35:22.212Z,19.63
2018-11-10T22:37:51.812Z,22.70
2018-11-10T22:40:22.238Z,20.43
2018-11-10T22:42:51.744Z,20.53
2018-11-10T22:45:22.215Z,22.70
2018-11-10T22:47:52.462Z,21.07
2018-11-10T22:50:23.136Z,21.87
2018-11-10T22:52:52.525Z,22.63
2018-11-10T22:55:21.811Z,21.80
2018-11-10T22:57:51.230Z,22.93
2018-11-10T23:00:25.758Z,23.83
2018-11-10T23:02:56.483Z,22.97
2018-11-10T23:05:26.295Z,23.10
2018-11-10T23:07:55.702Z,22.43
2018-11-10T23:10:25.303Z,21.80
2018-11-10T23:12:55.009Z,22.33
2018-11-10T23:15:24.414Z,23.13
2018-11-10T23:17:54.080Z,23.17
2018-11-10T23:20:23.771Z,22.57
2018-11-10T23:22:53.506Z,23.47
2018-11-10T23:25:23.350Z,25.03
2018-11-10T23:27:52.754Z,21.50
2018-11-10T23:30:23.282Z,24.17
2018-11-10T23:32:52.683Z,23.37
2018-11-10T23:35:21.974Z,22.63
2018-11-10T23:37:51.384Z,19.37
2018-11-10T23:40:20.797Z,19.53
2018-11-10T23:42:50.290Z,21.20
2018-11-10T23:45:19.650Z,21.30
2018-11-10T23:47:49.193Z,20.87
2018-11-10T23:50:19.073Z,22.43
2018-11-10T23:52:48.614Z,20.53
2018-11-10T23:55:18.835Z,20.10
2018-11-10T23:57:48.240Z,21.23
